createdAt,value
2023-09-24T00:03:45.856Z,12.21
2023-09-24T00:08:49.364Z,12.17
2023-09-24T00:13:51.575Z,12.15
2023-09-24T00:18:53.641Z,12.13
2023-09-24T00:23:55.784Z,12.07
2023-09-24T00:28:58.045Z,12.03
2023-09-24T00:33:59.819Z,12.01
2023-09-24T00:39:02.555Z,11.97
2023-09-24T00:44:05.185Z,11.91
2023-09-24T00:49:08.103Z,11.86
2023-09-24T00:54:11.954Z,11.86
2023-09-24T00:59:14.205Z,11.90
2023-09-24T01:04:16.627Z,11.86
2023-09-24T01:09:20.661Z,11.81
2023-09-24T01:14:23.147Z,11.76
2023-09-24T01:19:25.163Z,11.77
2023-09-24T01:24:28.628Z,11.83
2023-09-24T01:29:30.675Z,11.88
2023-09-24T01:34:32.648Z,11.95
2023-09-24T01:39:34.679Z,11.98
2023-09-24T01:44:36.489Z,11.95
2023-09-24T01:49:38.314Z,11.89
2023-09-24T01:54:40.257Z,11.92
2023-09-24T01:59:42.035Z,12.01
2023-09-24T02:04:43.999Z,12.08
2023-09-24T02:09:46.102Z,12.06
2023-09-24T02:14:49.389Z,12.04
2023-09-24T02:19:55.473Z,12.03
2023-09-24T02:24:57.759Z,12.05
2023-09-24T02:30:00.312Z,12.06
2023-09-24T02:35:02.365Z,12.02
2023-09-24T02:40:06.911Z,11.99
2023-09-24T02:45:10.431Z,11.98
2023-09-24T02:50:14.987Z,11.97
2023-09-24T02:55:19.144Z,11.93
2023-09-24T03:00:28.843Z,11.86
2023-09-24T03:05:31.157Z,11.82
2023-09-24T03:10:36.232Z,11.79
2023-09-24T03:15:38.421Z,11.81
2023-09-24T03:20:40.604Z,11.83
2023-09-24T03:25:42.610Z,11.82
2023-09-24T03:30:44.610Z,11.82
2023-09-24T03:35:48.748Z,11.83
2023-09-24T03:40:50.659Z,11.83
2023-09-24T03:45:53.164Z,11.79
2023-09-24T03:50:55.293Z,11.79
2023-09-24T03:55:57.760Z,11.81
2023-09-24T04:01:08.630Z,11.84
2023-09-24T04:06:12.320Z,11.87
2023-09-24T04:11:14.942Z,11.83
2023-09-24T04:16:16.851Z,11.79
2023-09-24T04:21:19.518Z,11.76
2023-09-24T04:26:23.079Z,11.72
2023-09-24T04:31:25.176Z,11.59
2023-09-24T04:36:27.046Z,11.46
2023-09-24T04:41:28.845Z,11.37
2023-09-24T04:46:30.830Z,11.32
2023-09-24T04:51:35.940Z,11.30
2023-09-24T04:56:37.894Z,11.31
2023-09-24T05:01:39.747Z,11.33
2023-09-24T05:06:41.525Z,11.38
2023-09-24T05:11:43.358Z,11.42
2023-09-24T05:16:45.201Z,11.45
2023-09-24T05:21:48.023Z,11.54
2023-09-24T05:26:49.867Z,11.63
2023-09-24T05:31:52.011Z,11.72
2023-09-24T05:36:53.806Z,11.82
2023-09-24T05:41:57.331Z,11.96
2023-09-24T05:47:00.689Z,12.05
2023-09-24T05:52:02.494Z,12.11
2023-09-24T05:57:05.234Z,12.11
2023-09-24T06:02:07.429Z,12.15
2023-09-24T06:07:09.279Z,12.24
2023-09-24T06:12:11.242Z,12.45
2023-09-24T06:17:13.399Z,12.65
2023-09-24T06:22:15.569Z,12.81
2023-09-24T06:27:18.281Z,12.95
2023-09-24T06:32:20.138Z,13.03
2023-09-24T06:37:22.090Z,12.99
2023-09-24T06:42:23.857Z,12.88
2023-09-24T06:47:25.645Z,12.91
2023-09-24T06:52:31.798Z,13.00
2023-09-24T06:57:33.684Z,13.14
2023-09-24T07:02:36.067Z,13.29
2023-09-24T07:07:39.057Z,13.39
2023-09-24T07:12:42.147Z,13.56
2023-09-24T07:17:44.530Z,13.79
2023-09-24T07:22:47.555Z,14.03
2023-09-24T07:27:49.306Z,14.28
2023-09-24T07:32:51.582Z,14.41
2023-09-24T07:37:53.733Z,14.50
2023-09-24T07:42:55.638Z,14.68
2023-09-24T07:47:57.467Z,14.88
2023-09-24T07:52:59.543Z,15.15
2023-09-24T07:58:01.299Z,15.44
2023-09-24T08:03:03.572Z,15.64
2023-09-24T08:08:05.706Z,15.83
2023-09-24T08:13:07.542Z,16.02
2023-09-24T08:18:10.857Z,16.07
2023-09-24T08:23:14.192Z,16.15
2023-09-24T08:28:15.998Z,16.28
2023-09-24T08:33:18.242Z,16.34
2023-09-24T08:38:20.169Z,16.31
2023-09-24T08:43:27.925Z,16.49
2023-09-24T08:48:30.698Z,16.75
2023-09-24T08:53:34.696Z,17.00
2023-09-24T08:58:36.757Z,17.27
2023-09-24T09:03:38.774Z,17.36
2023-09-24T09:08:54.724Z,17.22
2023-09-24T09:13:57.452Z,17.17
2023-09-24T09:19:01.542Z,17.30
2023-09-24T09:24:04.647Z,17.47
2023-09-24T09:29:06.491Z,17.55
2023-09-24T09:34:08.429Z,17.50
2023-09-24T09:39:10.679Z,17.47
2023-09-24T09:44:15.256Z,17.21
2023-09-24T09:49:21.746Z,17.37
2023-09-24T09:54:25.794Z,17.52
2023-09-24T09:59:29.006Z,17.69
2023-09-24T10:04:32.415Z,17.87
2023-09-24T10:09:36.165Z,18.10
2023-09-24T10:14:44.402Z,18.31
2023-09-24T10:19:58.328Z,18.40
2023-09-24T10:25:22.442Z,18.48
2023-09-24T10:30:24.338Z,18.52
2023-09-24T10:35:26.483Z,18.49
2023-09-24T10:40:39.086Z,18.33
2023-09-24T10:45:41.532Z,18.14
2023-09-24T10:50:45.797Z,18.00
2023-09-24T10:56:01.440Z,18.04
2023-09-24T11:01:10.319Z,18.23
2023-09-24T11:06:12.358Z,18.31
2023-09-24T11:11:15.047Z,18.30
2023-09-24T11:16:17.203Z,18.34
2023-09-24T11:21:19.146Z,18.45
2023-09-24T11:26:29.223Z,18.54
2023-09-24T11:31:31.009Z,18.50
2023-09-24T11:36:33.023Z,18.46
2023-09-24T11:41:36.289Z,18.52
2023-09-24T11:46:40.126Z,18.50
2023-09-24T11:51:42.039Z,18.65
2023-09-24T11:56:43.842Z,18.79
2023-09-24T12:01:45.750Z,18.94
2023-09-24T12:06:47.530Z,18.88
2023-09-24T12:11:49.345Z,18.86
2023-09-24T12:16:55.337Z,18.86
2023-09-24T12:21:57.109Z,18.98
2023-09-24T12:26:58.873Z,18.94
2023-09-24T12:32:00.824Z,18.94
2023-09-24T12:37:02.580Z,19.10
2023-09-24T12:42:04.518Z,19.18
2023-09-24T12:47:06.796Z,19.02
2023-09-24T12:52:10.431Z,18.92
2023-09-24T12:57:12.403Z,18.94
2023-09-24T13:02:15.519Z,18.87
2023-09-24T13:07:17.284Z,18.82
2023-09-24T13:12:19.142Z,18.87
2023-09-24T13:17:21.113Z,18.81
2023-09-24T13:22:23.254Z,18.71
2023-09-24T13:27:25.418Z,18.52
2023-09-24T13:32:27.508Z,18.49
2023-09-24T13:37:30.104Z,18.53
2023-09-24T13:42:32.637Z,18.52
2023-09-24T13:47:34.577Z,18.49
2023-09-24T13:52:36.683Z,18.60
2023-09-24T13:57:38.842Z,18.65
2023-09-24T14:02:42.762Z,18.44
2023-09-24T14:07:44.728Z,18.30
2023-09-24T14:12:47.219Z,18.17
2023-09-24T14:18:02.612Z,18.29
2023-09-24T14:23:04.850Z,18.41
2023-09-24T14:28:07.405Z,18.35
2023-09-24T14:33:09.334Z,18.23
2023-09-24T14:38:11.379Z,18.09
2023-09-24T14:43:13.133Z,17.83
2023-09-24T14:48:14.999Z,17.63
2023-09-24T14:53:16.995Z,17.49
2023-09-24T14:58:20.240Z,17.36
2023-09-24T15:03:22.460Z,17.18
2023-09-24T15:08:26.260Z,17.03
2023-09-24T15:13:28.851Z,16.87
2023-09-24T15:18:31.317Z,16.80
2023-09-24T15:23:33.372Z,16.82
2023-09-24T15:28:35.349Z,16.89
2023-09-24T15:33:37.336Z,16.96
2023-09-24T15:38:39.446Z,17.02
2023-09-24T15:43:41.352Z,17.05
2023-09-24T15:48:44.424Z,17.04
2023-09-24T15:53:46.601Z,17.01
2023-09-24T15:58:48.651Z,16.89
2023-09-24T16:03:50.884Z,16.76
2023-09-24T16:08:53.539Z,16.59
2023-09-24T16:13:55.381Z,16.47
2023-09-24T16:18:57.301Z,16.35
2023-09-24T16:23:59.193Z,16.28
2023-09-24T16:29:01.826Z,16.21
2023-09-24T16:34:03.824Z,16.12
2023-09-24T16:39:08.668Z,16.02
2023-09-24T16:44:10.558Z,15.92
2023-09-24T16:49:13.314Z,15.83
2023-09-24T16:54:15.281Z,15.75
2023-09-24T16:59:17.709Z,15.71
2023-09-24T17:04:20.329Z,15.67
2023-09-24T17:09:24.255Z,15.61
2023-09-24T17:14:26.178Z,15.57
2023-09-24T17:19:28.193Z,15.55
2023-09-24T17:24:33.252Z,15.54
2023-09-24T17:29:35.136Z,15.55
2023-09-24T17:34:37.008Z,15.50
2023-09-24T17:39:39.098Z,15.44
2023-09-24T17:44:40.973Z,15.39
2023-09-24T17:49:42.869Z,15.37
2023-09-24T17:54:44.864Z,15.37
2023-09-24T17:59:46.957Z,15.34
2023-09-24T18:04:48.902Z,15.31
2023-09-24T18:09:50.988Z,15.27
2023-09-24T18:14:52.928Z,15.27
2023-09-24T18:19:54.769Z,15.27
2023-09-24T18:24:56.544Z,15.26
2023-09-24T18:29:58.287Z,15.22
2023-09-24T18:35:00.283Z,15.18
2023-09-24T18:40:04.905Z,15.15
2023-09-24T18:45:08.136Z,15.15
2023-09-24T18:50:10.229Z,15.15
2023-09-24T18:55:11.985Z,15.13
2023-09-24T19:00:15.326Z,15.09
2023-09-24T19:05:17.701Z,15.07
2023-09-24T19:10:19.630Z,15.09
2023-09-24T19:15:21.779Z,15.09
2023-09-24T19:20:23.650Z,15.05
2023-09-24T19:25:27.423Z,15.02
2023-09-24T19:30:30.125Z,15.02
2023-09-24T19:35:32.077Z,15.02
2023-09-24T19:40:33.857Z,15.01
2023-09-24T19:45:36.282Z,15.01
2023-09-24T19:50:38.819Z,15.04
2023-09-24T19:55:54.460Z,15.06
2023-09-24T20:00:59.921Z,15.04
2023-09-24T20:06:07.265Z,15.01
2023-09-24T20:11:10.011Z,15.01
2023-09-24T20:16:12.121Z,15.00
2023-09-24T20:21:14.085Z,15.01
2023-09-24T20:26:16.224Z,14.98
2023-09-24T20:31:18.761Z,14.98
2023-09-24T20:36:21.226Z,14.99
2023-09-24T20:41:23.207Z,14.99
2023-09-24T20:46:27.062Z,14.99
2023-09-24T20:51:29.060Z,14.98
2023-09-24T20:56:31.041Z,14.96
2023-09-24T21:01:32.865Z,14.93
2023-09-24T21:06:34.795Z,14.88
2023-09-24T21:11:41.468Z,14.81
2023-09-24T21:16:45.566Z,14.75
2023-09-24T21:21:47.532Z,14.72
2023-09-24T21:26:49.298Z,14.66
2023-09-24T21:31:55.708Z,14.57
2023-09-24T21:36:57.709Z,14.50
2023-09-24T21:41:59.550Z,14.47
2023-09-24T21:47:01.679Z,14.48
2023-09-24T21:52:03.568Z,14.50
2023-09-24T21:57:05.313Z,14.52
2023-09-24T22:02:07.727Z,14.52
2023-09-24T22:07:10.047Z,14.56
2023-09-24T22:12:12.136Z,14.58
2023-09-24T22:17:13.974Z,14.61
2023-09-24T22:22:15.838Z,14.64
2023-09-24T22:27:17.616Z,14.70
2023-09-24T22:32:19.729Z,14.76
2023-09-24T22:37:21.614Z,14.77
2023-09-24T22:42:23.548Z,14.74
2023-09-24T22:47:25.590Z,14.74
2023-09-24T22:52:27.545Z,14.77
2023-09-24T22:57:29.380Z,14.75
2023-09-24T23:02:31.541Z,14.70
2023-09-24T23:07:34.446Z,14.65
2023-09-24T23:12:43.459Z,14.61
2023-09-24T23:17:45.454Z,14.61
2023-09-24T23:22:47.399Z,14.64
2023-09-24T23:27:49.330Z,14.65
2023-09-24T23:32:51.294Z,14.62
2023-09-24T23:37:53.410Z,14.60
2023-09-24T23:42:59.661Z,14.60
2023-09-24T23:48:03.107Z,14.60
2023-09-24T23:53:09.566Z,14.57
2023-09-24T23:58:11.890Z,14.56
